sensor_id;sensor_type;location;lat;lon;timestamp;P1;durP1;ratioP1;P2;durP2;ratioP2
15194;SDS011;7698;42.478;23.756;2023-09-19T00:00:30;4.13;;;3.83;;
15194;SDS011;7698;42.478;23.756;2023-09-19T00:02:59;4.40;;;4.10;;
15194;SDS011;7698;42.478;23.756;2023-09-19T00:05:27;4.60;;;4.20;;
15194;SDS011;7698;42.478;23.756;2023-09-19T00:07:54;5.13;;;4.55;;
15194;SDS011;7698;42.478;23.756;2023-09-19T00:10:21;4.20;;;4.00;;
15194;SDS011;7698;42.478;23.756;2023-09-19T00:12:49;5.00;;;4.60;;
15194;SDS011;7698;42.478;23.756;2023-09-19T00:15:16;4.07;;;3.67;;
15194;SDS011;7698;42.478;23.756;2023-09-19T00:17:45;4.20;;;3.90;;
15194;SDS011;7698;42.478;23.756;2023-09-19T00:20:12;4.13;;;3.80;;
15194;SDS011;7698;42.478;23.756;2023-09-19T00:22:42;5.20;;;4.72;;
15194;SDS011;7698;42.478;23.756;2023-09-19T00:25:09;5.72;;;5.25;;
15194;SDS011;7698;42.478;23.756;2023-09-19T00:27:37;4.90;;;4.53;;
15194;SDS011;7698;42.478;23.756;2023-09-19T00:30:07;4.95;;;4.55;;
15194;SDS011;7698;42.478;23.756;2023-09-19T00:32:39;4.45;;;4.05;;
15194;SDS011;7698;42.478;23.756;2023-09-19T00:35:06;4.38;;;3.97;;
15194;SDS011;7698;42.478;23.756;2023-09-19T00:37:33;4.82;;;4.43;;
15194;SDS011;7698;42.478;23.756;2023-09-19T00:40:02;5.03;;;4.63;;
15194;SDS011;7698;42.478;23.756;2023-09-19T00:42:30;5.18;;;4.78;;
15194;SDS011;7698;42.478;23.756;2023-09-19T00:44:56;4.72;;;4.32;;
15194;SDS011;7698;42.478;23.756;2023-09-19T00:47:23;6.20;;;5.70;;
15194;SDS011;7698;42.478;23.756;2023-09-19T00:49:50;7.15;;;5.38;;
15194;SDS011;7698;42.478;23.756;2023-09-19T00:52:18;5.68;;;5.13;;
15194;SDS011;7698;42.478;23.756;2023-09-19T00:54:45;5.15;;;4.75;;
15194;SDS011;7698;42.478;23.756;2023-09-19T00:57:13;4.55;;;4.15;;
15194;SDS011;7698;42.478;23.756;2023-09-19T00:59:44;5.95;;;5.45;;
15194;SDS011;7698;42.478;23.756;2023-09-19T01:02:11;5.78;;;4.70;;
15194;SDS011;7698;42.478;23.756;2023-09-19T01:04:39;4.53;;;4.22;;
15194;SDS011;7698;42.478;23.756;2023-09-19T01:07:06;4.57;;;4.28;;
15194;SDS011;7698;42.478;23.756;2023-09-19T01:09:33;6.10;;;5.53;;
15194;SDS011;7698;42.478;23.756;2023-09-19T01:12:01;5.10;;;4.70;;
15194;SDS011;7698;42.478;23.756;2023-09-19T01:14:33;5.10;;;4.60;;
15194;SDS011;7698;42.478;23.756;2023-09-19T01:17:03;5.45;;;4.95;;
15194;SDS011;7698;42.478;23.756;2023-09-19T01:19:42;5.35;;;4.95;;
15194;SDS011;7698;42.478;23.756;2023-09-19T01:22:16;4.30;;;4.00;;
15194;SDS011;7698;42.478;23.756;2023-09-19T01:24:55;5.72;;;5.00;;
15194;SDS011;7698;42.478;23.756;2023-09-19T01:27:36;5.93;;;5.43;;
15194;SDS011;7698;42.478;23.756;2023-09-19T01:30:11;4.82;;;4.45;;
15194;SDS011;7698;42.478;23.756;2023-09-19T01:32:40;5.72;;;5.28;;
15194;SDS011;7698;42.478;23.756;2023-09-19T01:35:07;4.38;;;4.07;;
15194;SDS011;7698;42.478;23.756;2023-09-19T01:37:38;5.88;;;5.38;;
15194;SDS011;7698;42.478;23.756;2023-09-19T01:40:06;5.50;;;5.00;;
15194;SDS011;7698;42.478;23.756;2023-09-19T01:42:43;6.93;;;6.43;;
15194;SDS011;7698;42.478;23.756;2023-09-19T01:45:13;8.43;;;7.65;;
15194;SDS011;7698;42.478;23.756;2023-09-19T01:47:41;8.25;;;7.55;;
15194;SDS011;7698;42.478;23.756;2023-09-19T01:50:12;9.30;;;8.60;;
15194;SDS011;7698;42.478;23.756;2023-09-19T01:52:41;12.63;;;11.55;;
15194;SDS011;7698;42.478;23.756;2023-09-19T01:55:09;11.38;;;10.52;;
15194;SDS011;7698;42.478;23.756;2023-09-19T01:57:38;14.20;;;13.10;;
15194;SDS011;7698;42.478;23.756;2023-09-19T02:00:10;22.38;;;20.45;;
15194;SDS011;7698;42.478;23.756;2023-09-19T02:02:39;27.65;;;25.30;;
15194;SDS011;7698;42.478;23.756;2023-09-19T02:05:06;30.10;;;27.60;;
15194;SDS011;7698;42.478;23.756;2023-09-19T02:07:33;24.30;;;22.38;;
15194;SDS011;7698;42.478;23.756;2023-09-19T02:10:01;25.23;;;23.13;;
15194;SDS011;7698;42.478;23.756;2023-09-19T02:12:28;28.48;;;25.83;;
15194;SDS011;7698;42.478;23.756;2023-09-19T02:14:55;26.13;;;24.05;;
15194;SDS011;7698;42.478;23.756;2023-09-19T02:17:22;20.50;;;18.80;;
15194;SDS011;7698;42.478;23.756;2023-09-19T02:19:53;17.95;;;16.52;;
15194;SDS011;7698;42.478;23.756;2023-09-19T02:22:20;18.05;;;16.65;;
15194;SDS011;7698;42.478;23.756;2023-09-19T02:24:46;16.63;;;15.23;;
15194;SDS011;7698;42.478;23.756;2023-09-19T02:27:13;13.20;;;12.18;;
15194;SDS011;7698;42.478;23.756;2023-09-19T02:29:41;13.60;;;12.50;;
15194;SDS011;7698;42.478;23.756;2023-09-19T02:32:07;11.98;;;10.98;;
15194;SDS011;7698;42.478;23.756;2023-09-19T02:34:35;13.43;;;12.43;;
15194;SDS011;7698;42.478;23.756;2023-09-19T02:37:05;10.48;;;9.68;;
15194;SDS011;7698;42.478;23.756;2023-09-19T02:39:33;11.88;;;10.88;;
15194;SDS011;7698;42.478;23.756;2023-09-19T02:42:00;11.07;;;10.18;;
15194;SDS011;7698;42.478;23.756;2023-09-19T02:44:27;9.65;;;8.85;;
15194;SDS011;7698;42.478;23.756;2023-09-19T02:46:54;9.70;;;9.00;;
15194;SDS011;7698;42.478;23.756;2023-09-19T02:49:22;9.25;;;8.48;;
15194;SDS011;7698;42.478;23.756;2023-09-19T02:51:49;9.20;;;8.50;;
15194;SDS011;7698;42.478;23.756;2023-09-19T02:54:17;8.10;;;7.50;;
15194;SDS011;7698;42.478;23.756;2023-09-19T02:56:44;7.80;;;7.25;;
15194;SDS011;7698;42.478;23.756;2023-09-19T02:59:12;7.43;;;6.82;;
15194;SDS011;7698;42.478;23.756;2023-09-19T03:01:42;7.68;;;7.07;;
15194;SDS011;7698;42.478;23.756;2023-09-19T03:04:09;7.00;;;6.50;;
15194;SDS011;7698;42.478;23.756;2023-09-19T03:06:36;8.20;;;7.60;;
15194;SDS011;7698;42.478;23.756;2023-09-19T03:09:03;9.95;;;9.05;;
15194;SDS011;7698;42.478;23.756;2023-09-19T03:11:38;11.27;;;10.38;;
15194;SDS011;7698;42.478;23.756;2023-09-19T03:14:05;13.23;;;12.07;;
15194;SDS011;7698;42.478;23.756;2023-09-19T03:16:32;11.43;;;10.43;;
15194;SDS011;7698;42.478;23.756;2023-09-19T03:18:58;10.38;;;9.55;;
15194;SDS011;7698;42.478;23.756;2023-09-19T03:21:25;9.35;;;8.55;;
15194;SDS011;7698;42.478;23.756;2023-09-19T03:23:54;7.93;;;7.40;;
15194;SDS011;7698;42.478;23.756;2023-09-19T03:26:21;10.77;;;9.98;;
15194;SDS011;7698;42.478;23.756;2023-09-19T03:28:49;10.13;;;9.43;;
15194;SDS011;7698;42.478;23.756;2023-09-19T03:31:15;9.77;;;9.07;;
15194;SDS011;7698;42.478;23.756;2023-09-19T03:33:42;10.70;;;9.95;;
15194;SDS011;7698;42.478;23.756;2023-09-19T03:36:08;8.55;;;7.95;;
15194;SDS011;7698;42.478;23.756;2023-09-19T03:38:35;8.57;;;7.97;;
15194;SDS011;7698;42.478;23.756;2023-09-19T03:41:01;7.45;;;6.95;;
15194;SDS011;7698;42.478;23.756;2023-09-19T03:43:28;8.07;;;7.40;;
15194;SDS011;7698;42.478;23.756;2023-09-19T03:45:56;9.75;;;9.05;;
15194;SDS011;7698;42.478;23.756;2023-09-19T03:48:23;10.48;;;9.68;;
15194;SDS011;7698;42.478;23.756;2023-09-19T03:50:49;9.10;;;8.40;;
15194;SDS011;7698;42.478;23.756;2023-09-19T03:53:16;9.38;;;8.68;;
15194;SDS011;7698;42.478;23.756;2023-09-19T03:55:44;10.85;;;9.98;;
15194;SDS011;7698;42.478;23.756;2023-09-19T03:58:10;13.02;;;12.02;;
15194;SDS011;7698;42.478;23.756;2023-09-19T04:00:37;11.45;;;10.55;;
15194;SDS011;7698;42.478;23.756;2023-09-19T04:03:05;14.82;;;13.63;;
15194;SDS011;7698;42.478;23.756;2023-09-19T04:05:33;13.38;;;12.27;;
15194;SDS011;7698;42.478;23.756;2023-09-19T04:07:59;12.23;;;11.43;;
15194;SDS011;7698;42.478;23.756;2023-09-19T04:10:26;12.80;;;11.80;;
15194;SDS011;7698;42.478;23.756;2023-09-19T04:12:53;13.43;;;12.10;;
15194;SDS011;7698;42.478;23.756;2023-09-19T04:15:20;12.02;;;11.02;;
15194;SDS011;7698;42.478;23.756;2023-09-19T04:17:48;13.07;;;12.00;;
15194;SDS011;7698;42.478;23.756;2023-09-19T04:20:16;12.02;;;11.13;;
15194;SDS011;7698;42.478;23.756;2023-09-19T04:22:44;12.23;;;11.32;;
15194;SDS011;7698;42.478;23.756;2023-09-19T04:25:11;12.80;;;11.80;;
15194;SDS011;7698;42.478;23.756;2023-09-19T04:27:37;12.82;;;11.85;;
15194;SDS011;7698;42.478;23.756;2023-09-19T04:30:05;13.40;;;12.30;;
15194;SDS011;7698;42.478;23.756;2023-09-19T04:32:35;17.42;;;16.13;;
15194;SDS011;7698;42.478;23.756;2023-09-19T04:35:04;18.48;;;17.15;;
15194;SDS011;7698;42.478;23.756;2023-09-19T04:37:34;16.33;;;15.15;;
15194;SDS011;7698;42.478;23.756;2023-09-19T04:40:01;15.35;;;14.15;;
15194;SDS011;7698;42.478;23.756;2023-09-19T04:42:29;14.93;;;13.88;;
15194;SDS011;7698;42.478;23.756;2023-09-19T04:44:56;14.25;;;13.25;;
15194;SDS011;7698;42.478;23.756;2023-09-19T04:47:25;15.25;;;14.07;;
15194;SDS011;7698;42.478;23.756;2023-09-19T04:49:51;16.35;;;15.15;;
15194;SDS011;7698;42.478;23.756;2023-09-19T04:52:18;14.80;;;13.70;;
15194;SDS011;7698;42.478;23.756;2023-09-19T04:54:46;13.93;;;12.93;;
15194;SDS011;7698;42.478;23.756;2023-09-19T04:57:13;14.18;;;13.13;;
15194;SDS011;7698;42.478;23.756;2023-09-19T04:59:40;15.07;;;13.98;;
15194;SDS011;7698;42.478;23.756;2023-09-19T05:02:07;14.20;;;13.18;;
15194;SDS011;7698;42.478;23.756;2023-09-19T05:04:34;15.40;;;14.15;;
15194;SDS011;7698;42.478;23.756;2023-09-19T05:07:01;14.18;;;13.05;;
15194;SDS011;7698;42.478;23.756;2023-09-19T05:09:28;10.75;;;9.95;;
15194;SDS011;7698;42.478;23.756;2023-09-19T05:11:56;13.35;;;12.18;;
15194;SDS011;7698;42.478;23.756;2023-09-19T05:14:23;12.00;;;11.05;;
15194;SDS011;7698;42.478;23.756;2023-09-19T05:16:50;12.07;;;11.07;;
15194;SDS011;7698;42.478;23.756;2023-09-19T05:19:16;11.70;;;10.70;;
15194;SDS011;7698;42.478;23.756;2023-09-19T05:21:43;12.85;;;11.85;;
15194;SDS011;7698;42.478;23.756;2023-09-19T05:24:09;12.60;;;11.50;;
15194;SDS011;7698;42.478;23.756;2023-09-19T05:26:36;11.30;;;10.27;;
15194;SDS011;7698;42.478;23.756;2023-09-19T05:29:04;10.65;;;9.70;;
15194;SDS011;7698;42.478;23.756;2023-09-19T05:31:33;9.88;;;8.93;;
15194;SDS011;7698;42.478;23.756;2023-09-19T05:34:01;7.50;;;6.90;;
15194;SDS011;7698;42.478;23.756;2023-09-19T05:36:29;6.97;;;6.43;;
15194;SDS011;7698;42.478;23.756;2023-09-19T05:38:56;8.43;;;7.45;;
15194;SDS011;7698;42.478;23.756;2023-09-19T05:41:22;6.70;;;6.10;;
15194;SDS011;7698;42.478;23.756;2023-09-19T05:43:49;6.97;;;6.28;;
15194;SDS011;7698;42.478;23.756;2023-09-19T05:46:17;7.18;;;6.57;;
15194;SDS011;7698;42.478;23.756;2023-09-19T05:48:43;7.00;;;6.30;;
15194;SDS011;7698;42.478;23.756;2023-09-19T05:51:12;6.07;;;5.57;;
15194;SDS011;7698;42.478;23.756;2023-09-19T05:53:39;6.88;;;6.28;;
15194;SDS011;7698;42.478;23.756;2023-09-19T05:56:08;6.47;;;5.97;;
15194;SDS011;7698;42.478;23.756;2023-09-19T05:58:36;5.88;;;5.35;;
15194;SDS011;7698;42.478;23.756;2023-09-19T06:01:03;5.38;;;4.90;;
15194;SDS011;7698;42.478;23.756;2023-09-19T06:03:31;5.55;;;5.15;;
15194;SDS011;7698;42.478;23.756;2023-09-19T06:05:58;5.28;;;4.80;;
15194;SDS011;7698;42.478;23.756;2023-09-19T06:08:24;5.43;;;4.93;;
15194;SDS011;7698;42.478;23.756;2023-09-19T06:10:51;5.55;;;5.05;;
15194;SDS011;7698;42.478;23.756;2023-09-19T06:13:18;5.60;;;5.10;;
15194;SDS011;7698;42.478;23.756;2023-09-19T06:15:45;7.60;;;4.85;;
15194;SDS011;7698;42.478;23.756;2023-09-19T06:18:12;5.30;;;4.90;;
15194;SDS011;7698;42.478;23.756;2023-09-19T06:20:46;5.03;;;4.63;;
15194;SDS011;7698;42.478;23.756;2023-09-19T06:23:13;4.97;;;4.57;;
15194;SDS011;7698;42.478;23.756;2023-09-19T06:25:39;5.47;;;4.25;;
15194;SDS011;7698;42.478;23.756;2023-09-19T06:28:06;5.53;;;5.13;;
15194;SDS011;7698;42.478;23.756;2023-09-19T06:30:36;5.60;;;5.00;;
15194;SDS011;7698;42.478;23.756;2023-09-19T06:33:05;5.22;;;4.43;;
15194;SDS011;7698;42.478;23.756;2023-09-19T06:35:32;5.20;;;4.70;;
15194;SDS011;7698;42.478;23.756;2023-09-19T06:38:01;4.75;;;4.35;;
15194;SDS011;7698;42.478;23.756;2023-09-19T06:40:28;5.93;;;4.55;;
15194;SDS011;7698;42.478;23.756;2023-09-19T06:42:56;4.70;;;4.30;;
15194;SDS011;7698;42.478;23.756;2023-09-19T06:45:23;5.15;;;4.75;;
15194;SDS011;7698;42.478;23.756;2023-09-19T06:47:51;5.28;;;4.78;;
15194;SDS011;7698;42.478;23.756;2023-09-19T06:50:20;4.40;;;4.00;;
15194;SDS011;7698;42.478;23.756;2023-09-19T06:52:47;4.82;;;4.43;;
15194;SDS011;7698;42.478;23.756;2023-09-19T06:55:16;5.18;;;4.43;;
15194;SDS011;7698;42.478;23.756;2023-09-19T06:57:45;4.78;;;4.38;;
15194;SDS011;7698;42.478;23.756;2023-09-19T07:00:12;5.15;;;4.10;;
15194;SDS011;7698;42.478;23.756;2023-09-19T07:02:43;5.05;;;4.18;;
15194;SDS011;7698;42.478;23.756;2023-09-19T07:05:10;4.63;;;4.22;;
15194;SDS011;7698;42.478;23.756;2023-09-19T07:07:36;4.93;;;4.47;;
15194;SDS011;7698;42.478;23.756;2023-09-19T07:10:04;4.53;;;4.13;;
15194;SDS011;7698;42.478;23.756;2023-09-19T07:12:32;5.82;;;5.43;;
15194;SDS011;7698;42.478;23.756;2023-09-19T07:14:59;5.53;;;5.03;;
15194;SDS011;7698;42.478;23.756;2023-09-19T07:17:25;5.63;;;5.20;;
15194;SDS011;7698;42.478;23.756;2023-09-19T07:19:53;5.32;;;4.93;;
15194;SDS011;7698;42.478;23.756;2023-09-19T07:22:19;5.53;;;5.13;;
15194;SDS011;7698;42.478;23.756;2023-09-19T07:24:46;5.55;;;5.15;;
15194;SDS011;7698;42.478;23.756;2023-09-19T07:27:14;5.70;;;4.90;;
15194;SDS011;7698;42.478;23.756;2023-09-19T07:29:42;5.43;;;5.03;;
15194;SDS011;7698;42.478;23.756;2023-09-19T07:32:10;5.45;;;5.00;;
15194;SDS011;7698;42.478;23.756;2023-09-19T07:34:37;5.65;;;4.95;;
15194;SDS011;7698;42.478;23.756;2023-09-19T07:37:04;3.90;;;3.60;;
15194;SDS011;7698;42.478;23.756;2023-09-19T07:39:30;3.55;;;3.25;;
15194;SDS011;7698;42.478;23.756;2023-09-19T07:41:57;3.63;;;3.38;;
15194;SDS011;7698;42.478;23.756;2023-09-19T07:44:24;4.15;;;3.85;;
15194;SDS011;7698;42.478;23.756;2023-09-19T07:46:53;4.07;;;3.78;;
15194;SDS011;7698;42.478;23.756;2023-09-19T07:49:20;4.63;;;3.38;;
15194;SDS011;7698;42.478;23.756;2023-09-19T07:51:47;3.20;;;3.00;;
15194;SDS011;7698;42.478;23.756;2023-09-19T07:54:13;4.57;;;3.13;;
15194;SDS011;7698;42.478;23.756;2023-09-19T07:56:40;3.28;;;2.97;;
15194;SDS011;7698;42.478;23.756;2023-09-19T07:59:07;4.18;;;3.30;;
15194;SDS011;7698;42.478;23.756;2023-09-19T08:01:36;3.97;;;3.67;;
15194;SDS011;7698;42.478;23.756;2023-09-19T08:04:06;3.58;;;3.22;;
15194;SDS011;7698;42.478;23.756;2023-09-19T08:06:33;4.25;;;3.47;;
15194;SDS011;7698;42.478;23.756;2023-09-19T08:09:00;3.78;;;3.22;;
15194;SDS011;7698;42.478;23.756;2023-09-19T08:11:32;3.38;;;3.08;;
15194;SDS011;7698;42.478;23.756;2023-09-19T08:13:59;3.45;;;3.15;;
15194;SDS011;7698;42.478;23.756;2023-09-19T08:16:26;3.75;;;3.45;;
15194;SDS011;7698;42.478;23.756;2023-09-19T08:18:52;3.33;;;3.08;;
15194;SDS011;7698;42.478;23.756;2023-09-19T08:21:21;3.35;;;3.08;;
15194;SDS011;7698;42.478;23.756;2023-09-19T08:23:49;3.22;;;3.03;;
15194;SDS011;7698;42.478;23.756;2023-09-19T08:26:16;3.35;;;2.97;;
15194;SDS011;7698;42.478;23.756;2023-09-19T08:28:43;3.90;;;3.50;;
15194;SDS011;7698;42.478;23.756;2023-09-19T08:31:09;3.40;;;3.13;;
15194;SDS011;7698;42.478;23.756;2023-09-19T08:33:36;3.38;;;3.05;;
15194;SDS011;7698;42.478;23.756;2023-09-19T08:36:03;4.82;;;3.33;;
15194;SDS011;7698;42.478;23.756;2023-09-19T08:38:33;3.30;;;3.00;;
15194;SDS011;7698;42.478;23.756;2023-09-19T08:41:00;2.90;;;2.70;;
15194;SDS011;7698;42.478;23.756;2023-09-19T08:43:27;4.65;;;3.47;;
15194;SDS011;7698;42.478;23.756;2023-09-19T08:45:54;3.50;;;3.20;;
15194;SDS011;7698;42.478;23.756;2023-09-19T08:48:24;4.25;;;3.10;;
15194;SDS011;7698;42.478;23.756;2023-09-19T08:50:55;3.33;;;2.92;;
15194;SDS011;7698;42.478;23.756;2023-09-19T08:53:26;4.40;;;3.95;;
15194;SDS011;7698;42.478;23.756;2023-09-19T08:55:56;3.00;;;2.80;;
15194;SDS011;7698;42.478;23.756;2023-09-19T08:58:25;3.92;;;3.60;;
15194;SDS011;7698;42.478;23.756;2023-09-19T09:00:53;4.03;;;3.03;;
15194;SDS011;7698;42.478;23.756;2023-09-19T09:03:20;3.72;;;3.42;;
15194;SDS011;7698;42.478;23.756;2023-09-19T09:05:48;4.05;;;3.70;;
15194;SDS011;7698;42.478;23.756;2023-09-19T09:08:16;3.47;;;3.25;;
15194;SDS011;7698;42.478;23.756;2023-09-19T09:10:43;3.88;;;3.58;;
15194;SDS011;7698;42.478;23.756;2023-09-19T09:13:11;3.60;;;3.28;;
15194;SDS011;7698;42.478;23.756;2023-09-19T09:15:39;3.85;;;3.50;;
15194;SDS011;7698;42.478;23.756;2023-09-19T09:18:06;3.25;;;2.90;;
15194;SDS011;7698;42.478;23.756;2023-09-19T09:20:33;3.78;;;3.45;;
15194;SDS011;7698;42.478;23.756;2023-09-19T09:22:59;3.88;;;3.45;;
15194;SDS011;7698;42.478;23.756;2023-09-19T09:25:47;3.28;;;3.08;;
15194;SDS011;7698;42.478;23.756;2023-09-19T09:28:18;5.00;;;3.80;;
15194;SDS011;7698;42.478;23.756;2023-09-19T09:30:45;3.80;;;3.50;;
15194;SDS011;7698;42.478;23.756;2023-09-19T09:33:12;3.17;;;2.97;;
15194;SDS011;7698;42.478;23.756;2023-09-19T09:35:47;3.38;;;3.08;;
15194;SDS011;7698;42.478;23.756;2023-09-19T09:38:17;3.50;;;3.15;;
15194;SDS011;7698;42.478;23.756;2023-09-19T09:40:47;4.40;;;2.92;;
15194;SDS011;7698;42.478;23.756;2023-09-19T09:43:28;4.35;;;3.22;;
15194;SDS011;7698;42.478;23.756;2023-09-19T09:46:08;3.38;;;3.10;;
15194;SDS011;7698;42.478;23.756;2023-09-19T09:48:56;3.05;;;2.65;;
15194;SDS011;7698;42.478;23.756;2023-09-19T09:51:41;3.55;;;3.28;;
15194;SDS011;7698;42.478;23.756;2023-09-19T09:54:09;3.55;;;3.33;;
15194;SDS011;7698;42.478;23.756;2023-09-19T09:56:39;2.95;;;2.75;;
15194;SDS011;7698;42.478;23.756;2023-09-19T09:59:19;3.60;;;3.30;;
15194;SDS011;7698;42.478;23.756;2023-09-19T10:01:49;3.70;;;3.40;;
15194;SDS011;7698;42.478;23.756;2023-09-19T10:04:21;3.75;;;3.40;;
15194;SDS011;7698;42.478;23.756;2023-09-19T10:06:54;3.38;;;3.03;;
15194;SDS011;7698;42.478;23.756;2023-09-19T10:09:20;3.80;;;3.42;;
15194;SDS011;7698;42.478;23.756;2023-09-19T10:12:00;3.28;;;3.00;;
15194;SDS011;7698;42.478;23.756;2023-09-19T10:14:30;3.65;;;3.35;;
15194;SDS011;7698;42.478;23.756;2023-09-19T10:17:00;3.50;;;3.20;;
15194;SDS011;7698;42.478;23.756;2023-09-19T10:19:29;3.50;;;3.20;;
15194;SDS011;7698;42.478;23.756;2023-09-19T10:21:58;3.35;;;3.05;;
15194;SDS011;7698;42.478;23.756;2023-09-19T10:24:26;2.97;;;2.78;;
15194;SDS011;7698;42.478;23.756;2023-09-19T10:26:53;3.72;;;3.05;;
15194;SDS011;7698;42.478;23.756;2023-09-19T10:29:20;3.10;;;2.90;;
15194;SDS011;7698;42.478;23.756;2023-09-19T10:31:48;3.85;;;3.55;;
15194;SDS011;7698;42.478;23.756;2023-09-19T10:34:17;4.38;;;3.85;;
15194;SDS011;7698;42.478;23.756;2023-09-19T10:36:44;3.10;;;2.83;;
15194;SDS011;7698;42.478;23.756;2023-09-19T10:39:13;3.70;;;3.40;;
15194;SDS011;7698;42.478;23.756;2023-09-19T10:41:43;3.90;;;3.40;;
15194;SDS011;7698;42.478;23.756;2023-09-19T10:44:18;4.47;;;3.45;;
15194;SDS011;7698;42.478;23.756;2023-09-19T10:46:46;3.55;;;3.25;;
15194;SDS011;7698;42.478;23.756;2023-09-19T10:49:14;3.20;;;2.90;;
15194;SDS011;7698;42.478;23.756;2023-09-19T10:51:41;4.05;;;3.42;;
15194;SDS011;7698;42.478;23.756;2023-09-19T10:54:10;3.50;;;3.20;;
15194;SDS011;7698;42.478;23.756;2023-09-19T10:56:40;3.67;;;3.33;;
15194;SDS011;7698;42.478;23.756;2023-09-19T10:59:10;3.63;;;3.40;;
15194;SDS011;7698;42.478;23.756;2023-09-19T11:01:41;3.40;;;3.10;;
15194;SDS011;7698;42.478;23.756;2023-09-19T11:04:24;3.55;;;3.25;;
15194;SDS011;7698;42.478;23.756;2023-09-19T11:07:03;4.15;;;3.85;;
15194;SDS011;7698;42.478;23.756;2023-09-19T11:09:46;3.50;;;3.20;;
15194;SDS011;7698;42.478;23.756;2023-09-19T11:14:55;3.55;;;3.30;;
15194;SDS011;7698;42.478;23.756;2023-09-19T11:20:21;3.28;;;3.08;;
15194;SDS011;7698;42.478;23.756;2023-09-19T11:25:48;4.00;;;3.70;;
15194;SDS011;7698;42.478;23.756;2023-09-19T11:28:27;3.63;;;3.35;;
15194;SDS011;7698;42.478;23.756;2023-09-19T11:30:55;3.58;;;3.28;;
15194;SDS011;7698;42.478;23.756;2023-09-19T11:33:24;4.13;;;3.70;;
15194;SDS011;7698;42.478;23.756;2023-09-19T11:36:04;3.60;;;3.40;;
15194;SDS011;7698;42.478;23.756;2023-09-19T11:46:51;3.80;;;3.50;;
15194;SDS011;7698;42.478;23.756;2023-09-19T11:49:18;4.38;;;3.60;;
15194;SDS011;7698;42.478;23.756;2023-09-19T11:51:48;3.45;;;3.25;;
15194;SDS011;7698;42.478;23.756;2023-09-19T11:54:16;3.70;;;3.40;;
15194;SDS011;7698;42.478;23.756;2023-09-19T11:56:48;3.45;;;3.15;;
15194;SDS011;7698;42.478;23.756;2023-09-19T11:59:19;3.65;;;3.33;;
15194;SDS011;7698;42.478;23.756;2023-09-19T12:01:50;4.00;;;3.70;;
15194;SDS011;7698;42.478;23.756;2023-09-19T12:04:22;3.15;;;2.95;;
15194;SDS011;7698;42.478;23.756;2023-09-19T12:07:04;3.92;;;3.63;;
15194;SDS011;7698;42.478;23.756;2023-09-19T12:09:31;3.92;;;3.28;;
15194;SDS011;7698;42.478;23.756;2023-09-19T12:11:58;3.70;;;3.40;;
15194;SDS011;7698;42.478;23.756;2023-09-19T12:14:25;3.70;;;3.22;;
15194;SDS011;7698;42.478;23.756;2023-09-19T12:16:53;3.55;;;3.25;;
15194;SDS011;7698;42.478;23.756;2023-09-19T12:19:20;3.30;;;3.10;;
15194;SDS011;7698;42.478;23.756;2023-09-19T12:21:54;3.28;;;3.08;;
15194;SDS011;7698;42.478;23.756;2023-09-19T12:24:24;3.78;;;3.58;;
15194;SDS011;7698;42.478;23.756;2023-09-19T12:26:54;3.60;;;3.38;;
15194;SDS011;7698;42.478;23.756;2023-09-19T12:29:29;3.67;;;3.40;;
15194;SDS011;7698;42.478;23.756;2023-09-19T12:31:56;3.53;;;3.15;;
15194;SDS011;7698;42.478;23.756;2023-09-19T12:34:24;3.55;;;3.25;;
15194;SDS011;7698;42.478;23.756;2023-09-19T12:37:08;3.38;;;3.08;;
15194;SDS011;7698;42.478;23.756;2023-09-19T12:39:43;3.60;;;3.30;;
15194;SDS011;7698;42.478;23.756;2023-09-19T12:42:14;3.53;;;3.28;;
15194;SDS011;7698;42.478;23.756;2023-09-19T12:44:41;3.10;;;2.90;;
15194;SDS011;7698;42.478;23.756;2023-09-19T12:47:08;3.47;;;3.17;;
15194;SDS011;7698;42.478;23.756;2023-09-19T12:49:35;3.40;;;2.80;;
15194;SDS011;7698;42.478;23.756;2023-09-19T12:52:02;3.60;;;3.30;;
15194;SDS011;7698;42.478;23.756;2023-09-19T12:54:37;3.97;;;3.55;;
15194;SDS011;7698;42.478;23.756;2023-09-19T12:57:06;2.88;;;2.67;;
15194;SDS011;7698;42.478;23.756;2023-09-19T12:59:32;3.42;;;3.17;;
15194;SDS011;7698;42.478;23.756;2023-09-19T13:02:04;3.28;;;3.08;;
15194;SDS011;7698;42.478;23.756;2023-09-19T13:04:32;3.72;;;3.40;;
15194;SDS011;7698;42.478;23.756;2023-09-19T13:06:59;3.42;;;3.22;;
15194;SDS011;7698;42.478;23.756;2023-09-19T13:09:26;2.90;;;2.70;;
15194;SDS011;7698;42.478;23.756;2023-09-19T13:11:59;3.83;;;3.38;;
15194;SDS011;7698;42.478;23.756;2023-09-19T13:14:29;4.97;;;4.47;;
15194;SDS011;7698;42.478;23.756;2023-09-19T13:16:59;3.85;;;3.30;;
15194;SDS011;7698;42.478;23.756;2023-09-19T13:19:38;3.53;;;3.22;;
15194;SDS011;7698;42.478;23.756;2023-09-19T13:24:48;4.00;;;3.60;;
15194;SDS011;7698;42.478;23.756;2023-09-19T13:27:16;3.33;;;3.03;;
15194;SDS011;7698;42.478;23.756;2023-09-19T13:29:44;4.10;;;3.15;;
15194;SDS011;7698;42.478;23.756;2023-09-19T13:32:11;3.40;;;3.10;;
15194;SDS011;7698;42.478;23.756;2023-09-19T13:34:37;3.33;;;3.05;;
15194;SDS011;7698;42.478;23.756;2023-09-19T13:37:04;3.70;;;3.40;;
15194;SDS011;7698;42.478;23.756;2023-09-19T13:39:31;3.30;;;3.00;;
15194;SDS011;7698;42.478;23.756;2023-09-19T13:41:57;3.53;;;3.22;;
15194;SDS011;7698;42.478;23.756;2023-09-19T13:44:25;3.30;;;3.10;;
15194;SDS011;7698;42.478;23.756;2023-09-19T13:46:55;3.40;;;3.20;;
15194;SDS011;7698;42.478;23.756;2023-09-19T13:49:22;3.28;;;2.97;;
15194;SDS011;7698;42.478;23.756;2023-09-19T13:51:48;6.55;;;4.47;;
15194;SDS011;7698;42.478;23.756;2023-09-19T13:54:15;3.97;;;3.67;;
15194;SDS011;7698;42.478;23.756;2023-09-19T13:56:41;3.90;;;3.60;;
15194;SDS011;7698;42.478;23.756;2023-09-19T13:59:08;3.40;;;3.10;;
15194;SDS011;7698;42.478;23.756;2023-09-19T14:01:34;4.00;;;3.13;;
15194;SDS011;7698;42.478;23.756;2023-09-19T14:04:03;3.00;;;2.80;;
15194;SDS011;7698;42.478;23.756;2023-09-19T14:06:29;3.58;;;3.30;;
15194;SDS011;7698;42.478;23.756;2023-09-19T14:08:56;3.00;;;2.80;;
15194;SDS011;7698;42.478;23.756;2023-09-19T14:11:22;3.03;;;2.83;;
15194;SDS011;7698;42.478;23.756;2023-09-19T14:13:49;3.63;;;3.33;;
15194;SDS011;7698;42.478;23.756;2023-09-19T14:16:17;3.20;;;3.00;;
15194;SDS011;7698;42.478;23.756;2023-09-19T14:18:44;3.53;;;3.30;;
15194;SDS011;7698;42.478;23.756;2023-09-19T14:21:12;3.45;;;3.05;;
15194;SDS011;7698;42.478;23.756;2023-09-19T14:23:39;3.58;;;3.28;;
15194;SDS011;7698;42.478;23.756;2023-09-19T14:26:07;3.65;;;3.35;;
15194;SDS011;7698;42.478;23.756;2023-09-19T14:28:34;4.10;;;3.70;;
15194;SDS011;7698;42.478;23.756;2023-09-19T14:31:03;4.25;;;3.50;;
15194;SDS011;7698;42.478;23.756;2023-09-19T14:33:30;3.80;;;3.33;;
15194;SDS011;7698;42.478;23.756;2023-09-19T14:35:56;4.13;;;3.72;;
15194;SDS011;7698;42.478;23.756;2023-09-19T14:38:24;4.20;;;3.30;;
15194;SDS011;7698;42.478;23.756;2023-09-19T14:40:58;3.80;;;3.45;;
15194;SDS011;7698;42.478;23.756;2023-09-19T14:43:25;3.90;;;3.55;;
15194;SDS011;7698;42.478;23.756;2023-09-19T14:45:52;5.03;;;3.55;;
15194;SDS011;7698;42.478;23.756;2023-09-19T14:48:18;3.92;;;3.63;;
15194;SDS011;7698;42.478;23.756;2023-09-19T14:50:45;3.15;;;2.95;;
15194;SDS011;7698;42.478;23.756;2023-09-19T14:53:13;3.25;;;2.97;;
15194;SDS011;7698;42.478;23.756;2023-09-19T14:55:41;3.58;;;3.13;;
15194;SDS011;7698;42.478;23.756;2023-09-19T14:58:10;4.65;;;3.25;;
15194;SDS011;7698;42.478;23.756;2023-09-19T15:00:37;4.65;;;3.42;;
15194;SDS011;7698;42.478;23.756;2023-09-19T15:03:04;2.92;;;2.72;;
15194;SDS011;7698;42.478;23.756;2023-09-19T15:05:31;3.58;;;3.28;;
15194;SDS011;7698;42.478;23.756;2023-09-19T15:07:59;3.00;;;2.70;;
15194;SDS011;7698;42.478;23.756;2023-09-19T15:10:27;3.10;;;2.80;;